Kota Waris — S6RJ — position and weather

sailwx.info

Track history (hours):
 
Tides and Currents Weather Stations Pressure Air Temp Water Temp Dewpoint Dewpoint Depression Visibility Wind Speed Wind Dir Waves Ship Positions

Kota Waris

Last reported at 2015-Apr-16 01:04 UTC. Time now 2015-Apr-19 21:02 UTC.
Position N 21°36' E 108°20'.

Length 185 m; draft 6.7 m.

Type: Ship (hazmat cat A). MMSI: 564482000.

Date/timePositionNaut miles runAvg speedWind from/ knotsBaromVisibWave heightAir tempDewpointWater temp
2015-Apr-16 01:04N 21°36' E 108°20'0 0.2
2015-Apr-16 00:10N 21°36' E 108°20'0 0.0
2015-Apr-15 18:10N 21°36' E 108°20'0 0.0
2015-Apr-15 16:04N 21°36' E 108°20'0 0.0
2015-Apr-15 13:22N 21°36' E 108°20'0 0.0
2015-Apr-15 12:31N 21°36' E 108°20'  
2015-Apr-09 10:12N 01°16' E 104°10'914.7
2015-Apr-09 09:34N 01°14' E 104°01'12 9.7
2015-Apr-09 08:20N 01°11' E 103°50'4 5.1
2015-Apr-09 07:28N 01°14' E 103°47'3 3.6
2015-Apr-09 06:33N 01°17' E 103°46'0 0.0
2015-Apr-09 05:26N 01°17' E 103°46'0 0.1
2015-Apr-09 04:33N 01°17' E 103°46'0 0.1
2015-Apr-09 03:32N 01°17' E 103°46'0 0.0
2015-Apr-08 14:30N 01°17' E 103°46'0 0.0
2015-Apr-08 13:31N 01°17' E 103°46'0 0.0
2015-Apr-08 12:31N 01°17' E 103°46'0 0.0
2015-Apr-08 11:08N 01°17' E 103°46'0 0.1
2015-Apr-08 10:32N 01°17' E 103°46'3 3.2
2015-Apr-08 09:33N 01°14' E 103°47'7 6.9
2015-Apr-08 08:33N 01°13' E 103°54'8 7.5
2015-Apr-08 07:32N 01°16' E 104°01'9 8.9
2015-Apr-08 06:33N 01°17' E 104°10'4 2.0
2015-Apr-08 04:33N 01°17' E 104°14'  
Track history (hours):
 
Tides and Currents Weather Stations Pressure Air Temp Water Temp Dewpoint Dewpoint Depression Visibility Wind Speed Wind Dir Waves Ship Positions

Kota Waris

Last reported at 2015-Apr-16 01:04 UTC. Time now 2015-Apr-19 21:02 UTC.
Position N 21°36' E 108°20'.

Length 185 m; draft 6.7 m.

Type: Ship (hazmat cat A). MMSI: 564482000.

Date/timePositionNaut miles runAvg speedWind from/ knotsBaromVisibWave heightAir tempDewpointWater temp
2015-Apr-16 01:04N 21°36' E 108°20'0 0.2
2015-Apr-16 00:10N 21°36' E 108°20'0 0.0
2015-Apr-15 18:10N 21°36' E 108°20'0 0.0
2015-Apr-15 16:04N 21°36' E 108°20'0 0.0
2015-Apr-15 13:22N 21°36' E 108°20'0 0.0
2015-Apr-15 12:31N 21°36' E 108°20'  
2015-Apr-09 10:12N 01°16' E 104°10'914.7
2015-Apr-09 09:34N 01°14' E 104°01'12 9.7
2015-Apr-09 08:20N 01°11' E 103°50'4 5.1
2015-Apr-09 07:28N 01°14' E 103°47'3 3.6
2015-Apr-09 06:33N 01°17' E 103°46'0 0.0
2015-Apr-09 05:26N 01°17' E 103°46'0 0.1
2015-Apr-09 04:33N 01°17' E 103°46'0 0.1
2015-Apr-09 03:32N 01°17' E 103°46'0 0.0
2015-Apr-08 14:30N 01°17' E 103°46'0 0.0
2015-Apr-08 13:31N 01°17' E 103°46'0 0.0
2015-Apr-08 12:31N 01°17' E 103°46'0 0.0
2015-Apr-08 11:08N 01°17' E 103°46'0 0.1
2015-Apr-08 10:32N 01°17' E 103°46'3 3.2
2015-Apr-08 09:33N 01°14' E 103°47'7 6.9
2015-Apr-08 08:33N 01°13' E 103°54'8 7.5
2015-Apr-08 07:32N 01°16' E 104°01'9 8.9
2015-Apr-08 06:33N 01°17' E 104°10'4 2.0
2015-Apr-08 04:33N 01°17' E 104°14'  

Dump ship's entire track history